createdAt,value
2018-12-22T00:00:14.741Z,49.8
2018-12-22T00:05:12.305Z,49.8
2018-12-22T00:10:08.966Z,49.8
2018-12-22T00:15:06.419Z,49.7
2018-12-22T00:20:03.941Z,49.8
2018-12-22T00:25:01.457Z,49.7
2018-12-22T00:29:58.180Z,49.8
2018-12-22T00:34:55.638Z,49.8
2018-12-22T00:39:53.075Z,49.8
2018-12-22T00:44:50.478Z,49.8
2018-12-22T00:49:47.360Z,49.8
2018-12-22T00:54:44.870Z,49.7
2018-12-22T00:59:41.913Z,49.7
2018-12-22T01:04:39.386Z,49.7
2018-12-22T01:09:36.373Z,49.7
2018-12-22T01:14:33.683Z,49.7
2018-12-22T01:19:31.008Z,49.7
2018-12-22T01:24:28.231Z,49.8
2018-12-22T01:29:24.790Z,49.7
2018-12-22T01:34:22.164Z,49.7
2018-12-22T01:39:19.580Z,49.7
2018-12-22T01:44:16.874Z,49.7
2018-12-22T01:49:13.251Z,49.7
2018-12-22T01:54:10.833Z,49.7
2018-12-22T01:59:08.173Z,49.7
2018-12-22T02:04:05.372Z,49.7
2018-12-22T02:09:02.631Z,49.7
2018-12-22T02:13:59.484Z,49.7
2018-12-22T02:18:56.785Z,49.7
2018-12-22T02:23:53.899Z,49.6
2018-12-22T02:28:57.080Z,49.7
2018-12-22T02:33:53.300Z,49.6
2018-12-22T02:38:50.126Z,49.6
2018-12-22T02:43:47.656Z,49.6
2018-12-22T02:48:45.191Z,49.6
2018-12-22T02:53:42.645Z,49.6
2018-12-22T02:58:39.965Z,49.6
2018-12-22T03:03:37.437Z,49.6
2018-12-22T03:08:34.784Z,49.6
2018-12-22T03:13:32.286Z,49.5
2018-12-22T03:18:29.516Z,49.5
2018-12-22T03:23:27.010Z,49.5
2018-12-22T03:28:23.931Z,49.5
2018-12-22T03:33:21.531Z,49.5
2018-12-22T03:38:18.706Z,49.5
2018-12-22T03:43:15.642Z,49.5
2018-12-22T03:48:13.014Z,49.5
2018-12-22T03:53:10.428Z,49.5
2018-12-22T03:58:07.456Z,49.5
2018-12-22T04:03:05.137Z,49.5
2018-12-22T04:08:02.561Z,49.5
2018-12-22T04:13:00.121Z,49.5
2018-12-22T04:17:57.341Z,49.5
2018-12-22T04:22:54.867Z,49.5
2018-12-22T04:27:52.492Z,49.5
2018-12-22T04:32:50.088Z,49.5
2018-12-22T04:37:47.545Z,49.5
2018-12-22T04:42:44.828Z,49.5
2018-12-22T04:47:41.695Z,49.5
2018-12-22T04:52:39.314Z,49.5
2018-12-22T04:57:36.115Z,49.5
2018-12-22T05:02:33.474Z,49.5
2018-12-22T05:07:30.443Z,49.4
2018-12-22T05:12:28.024Z,49.5
2018-12-22T05:17:25.397Z,49.5
2018-12-22T05:22:22.746Z,49.4
2018-12-22T05:27:19.661Z,49.5
2018-12-22T05:32:17.210Z,49.4
2018-12-22T05:37:14.729Z,49.4
2018-12-22T05:42:11.998Z,49.4
2018-12-22T05:47:09.421Z,49.4
2018-12-22T05:52:06.908Z,49.4
2018-12-22T05:57:04.407Z,49.4
2018-12-22T06:02:01.557Z,49.4
2018-12-22T06:06:58.273Z,49.4
2018-12-22T06:11:55.209Z,49.4
2018-12-22T06:16:53.032Z,49.4
2018-12-22T06:21:50.471Z,49.4
2018-12-22T06:26:47.712Z,49.4
2018-12-22T06:31:45.140Z,49.4
2018-12-22T06:36:42.345Z,49.3
2018-12-22T06:41:39.719Z,49.3
2018-12-22T06:46:37.177Z,49.3
2018-12-22T06:51:34.454Z,49.4
2018-12-22T06:56:32.046Z,49.3
2018-12-22T07:01:29.324Z,49.3
2018-12-22T07:06:26.768Z,49.4
2018-12-22T07:11:24.281Z,49.4
2018-12-22T07:16:21.076Z,49.4
2018-12-22T07:21:18.710Z,49.4
2018-12-22T07:26:15.746Z,49.4
2018-12-22T07:31:12.848Z,49.4
2018-12-22T07:36:10.309Z,49.4
2018-12-22T07:41:07.675Z,49.4
2018-12-22T07:46:05.162Z,49.4
2018-12-22T07:51:02.637Z,49.4
2018-12-22T07:55:59.634Z,49.4
2018-12-22T08:00:56.975Z,49.4
2018-12-22T08:05:54.348Z,49.4
2018-12-22T08:10:51.819Z,49.4
2018-12-22T08:15:48.687Z,49.5
2018-12-22T08:20:46.270Z,49.4
2018-12-22T08:25:43.864Z,49.5
2018-12-22T08:30:44.099Z,49.4
2018-12-22T08:35:40.839Z,49.4
2018-12-22T08:40:38.257Z,49.4
2018-12-22T08:45:35.591Z,49.4
2018-12-22T08:50:33.120Z,49.4
2018-12-22T08:55:30.244Z,49.4
2018-12-22T09:00:27.226Z,49.5
2018-12-22T09:05:24.551Z,49.4
2018-12-22T09:10:22.102Z,49.5
2018-12-22T09:15:19.514Z,49.4
2018-12-22T09:20:16.950Z,49.5
2018-12-22T09:25:15.032Z,49.5
2018-12-22T09:30:12.020Z,49.5
2018-12-22T16:11:42.479Z,50.2
2018-12-22T16:16:40.125Z,50.2
2018-12-22T16:21:37.756Z,50.2
2018-12-22T16:26:34.892Z,50.2
2018-12-22T16:31:32.262Z,50.2
2018-12-22T16:36:29.702Z,50.2
2018-12-22T16:41:27.175Z,50.2
2018-12-22T16:46:24.799Z,50.2
2018-12-22T16:51:22.034Z,50.1
2018-12-22T16:56:19.696Z,50.1
2018-12-22T17:01:17.283Z,50.1
2018-12-22T17:06:14.858Z,50.2
2018-12-22T17:11:11.789Z,50.1
2018-12-22T17:16:09.335Z,50.1
2018-12-22T17:21:06.872Z,50.1
2018-12-22T17:26:04.284Z,50.1
2018-12-22T17:31:01.303Z,50.1
2018-12-22T17:35:58.877Z,50.1
2018-12-22T17:40:56.559Z,50.1
2018-12-22T17:45:53.613Z,50.1
2018-12-22T17:50:51.090Z,50.1
2018-12-22T17:55:48.344Z,50.1
2018-12-22T18:00:45.907Z,50.1
2018-12-22T18:05:43.420Z,50.1
2018-12-22T18:10:41.304Z,50.2
2018-12-22T18:15:38.972Z,50.1
2018-12-22T18:20:36.436Z,50.1
2018-12-22T18:25:33.876Z,50.1
2018-12-22T18:30:31.013Z,50.1
2018-12-22T18:35:28.985Z,50.2
2018-12-22T18:40:26.377Z,50.1
2018-12-22T18:45:23.987Z,50.2
2018-12-22T18:50:21.564Z,50.2
2018-12-22T18:55:19.016Z,50.2
2018-12-22T19:00:16.150Z,50.2
2018-12-22T19:05:13.908Z,50.3
2018-12-22T19:10:10.783Z,50.3
2018-12-22T19:15:08.442Z,50.3
2018-12-22T19:20:06.047Z,50.3
2018-12-22T19:25:03.551Z,50.3
2018-12-22T19:30:00.572Z,50.3
2018-12-22T19:34:57.550Z,50.3
2018-12-22T19:39:55.069Z,50.3
2018-12-22T19:44:52.371Z,50.3
2018-12-22T19:49:49.834Z,50.3
2018-12-22T19:54:47.039Z,50.3
2018-12-22T19:59:44.441Z,50.3
2018-12-22T20:04:42.044Z,50.3
2018-12-22T20:09:38.758Z,50.4
2018-12-22T20:14:35.839Z,50.3
2018-12-22T20:19:33.479Z,50.4
2018-12-22T20:24:31.150Z,50.3
2018-12-22T20:29:28.733Z,50.4
2018-12-22T20:34:26.235Z,50.4
2018-12-22T20:39:23.170Z,50.3
2018-12-22T20:44:20.295Z,50.3
2018-12-22T20:49:17.342Z,50.3
2018-12-22T20:54:14.668Z,50.3
2018-12-22T20:59:12.867Z,50.4
2018-12-22T21:04:09.536Z,50.3
2018-12-22T21:09:06.622Z,50.4
2018-12-22T21:14:04.054Z,50.4
2018-12-22T21:19:01.499Z,50.4
2018-12-22T21:23:58.656Z,50.4
2018-12-22T21:28:55.850Z,50.4
2018-12-22T21:33:53.090Z,50.4
2018-12-22T21:38:50.600Z,50.4
2018-12-22T21:43:47.705Z,50.4
2018-12-22T21:48:44.788Z,50.4
2018-12-22T21:53:42.316Z,50.4
2018-12-22T21:58:39.592Z,50.4
2018-12-22T22:03:37.238Z,50.4
2018-12-22T22:08:34.654Z,50.3
2018-12-22T22:13:31.691Z,50.4
2018-12-22T22:18:28.933Z,50.4
2018-12-22T22:23:26.019Z,50.4
2018-12-22T22:28:23.503Z,50.4
2018-12-22T22:33:20.170Z,50.4
2018-12-22T22:38:17.714Z,50.4
2018-12-22T22:43:15.260Z,50.4
2018-12-22T22:48:12.442Z,50.5
2018-12-22T22:53:10.092Z,50.5
2018-12-22T22:58:07.463Z,50.5
2018-12-22T23:03:04.592Z,50.5
2018-12-22T23:08:02.108Z,50.5
2018-12-22T23:12:59.421Z,50.5
2018-12-22T23:17:56.118Z,50.4
2018-12-22T23:22:53.520Z,50.4
2018-12-22T23:27:50.949Z,50.4
2018-12-22T23:32:48.417Z,50.4
2018-12-22T23:37:45.725Z,50.5
2018-12-22T23:42:42.964Z,50.4
2018-12-22T23:47:40.091Z,50.5
2018-12-22T23:52:37.608Z,50.5
2018-12-22T23:57:35.145Z,50.4
